Time;durP1;ratioP1;P1;durP2;ratioP2;P2;SDS_P1;SDS_P2;PMS_P1;PMS_P2;Temp;Humidity;BMP_temperature;BMP_pressure;BME280_temperature;BME280_humidity;BME280_pressure;Samples;Min_cycle;Max_cycle;Signal;HPM_P1;HPM_P2
2024/01/07 00:00:52;;;;;;;15.30;9.33;;;;;;;6.56;100.00;100149.16;2078221;28;20298;-74
2024/01/07 00:01:53;;;;;;;14.17;10.17;;;;;;;6.55;100.00;100144.06;2078204;28;20197;-74
2024/01/07 00:02:53;;;;;;;17.83;9.57;;;;;;;6.16;100.00;100086.84;2078726;28;20196;-74
2024/01/07 00:03:54;;;;;;;15.20;9.37;;;;;;;6.58;100.00;100159.75;2078605;28;20199;-74
2024/01/07 00:04:54;;;;;;;14.90;9.03;;;;;;;6.47;100.00;100137.13;2078791;28;20670;-74
2024/01/07 00:05:55;;;;;;;15.57;9.33;;;;;;;6.61;100.00;100167.94;2078341;28;20796;-74
2024/01/07 00:06:55;;;;;;;13.67;8.70;;;;;;;5.54;100.00;99993.03;2078902;28;20266;-73
2024/01/07 00:07:56;;;;;;;18.80;9.50;;;;;;;6.74;100.00;100177.19;2079505;28;20216;-74
2024/01/07 00:08:56;;;;;;;18.83;9.40;;;;;;;6.71;100.00;100169.00;2078829;28;20670;-74
2024/01/07 00:09:57;;;;;;;14.20;8.93;;;;;;;6.71;100.00;100169.00;2079104;28;20242;-74
2024/01/07 00:10:57;;;;;;;14.47;8.70;;;;;;;6.69;100.00;100174.13;2078355;28;20219;-74
2024/01/07 00:11:58;;;;;;;17.63;9.33;;;;;;;6.59;100.00;100159.34;2078209;28;20195;-74
2024/01/07 00:12:59;;;;;;;14.37;9.13;;;;;;;6.63;100.00;100168.34;2079031;28;20283;-74
2024/01/07 00:13:59;;;;;;;16.02;9.07;;;;;;;6.54;100.00;100165.31;2078148;28;20196;-74
2024/01/07 00:15:00;;;;;;;19.07;8.83;;;;;;;5.92;100.00;100077.00;2077834;28;20180;-74
2024/01/07 00:16:00;;;;;;;17.07;10.23;;;;;;;6.49;100.00;100160.28;2078532;28;20574;-74
2024/01/07 00:17:01;;;;;;;14.43;9.23;;;;;;;6.54;100.00;100159.81;2078278;28;20671;-73
2024/01/07 00:18:02;;;;;;;13.40;8.40;;;;;;;6.64;100.00;100169.09;2078094;28;20185;-74
2024/01/07 00:19:03;;;;;;;18.38;8.73;;;;;;;6.70;100.00;100179.22;2078837;28;20209;-74
2024/01/07 00:20:03;;;;;;;14.83;8.80;;;;;;;6.71;100.00;100171.75;2078826;28;20195;-74
2024/01/07 00:21:04;;;;;;;14.70;7.57;;;;;;;6.75;100.00;100162.22;2078103;28;20707;-74
2024/01/07 00:22:05;;;;;;;11.97;8.27;;;;;;;6.86;100.00;100162.84;2078989;28;20208;-74
2024/01/07 00:23:05;;;;;;;13.23;8.30;;;;;;;6.80;100.00;100149.97;2077911;28;20192;-74
2024/01/07 00:24:06;;;;;;;13.47;8.57;;;;;;;6.73;100.00;100147.31;2079493;28;20187;-74
2024/01/07 00:25:06;;;;;;;13.50;7.63;;;;;;;6.64;100.00;100144.31;2078781;28;20241;-74
2024/01/07 00:26:07;;;;;;;13.70;8.87;;;;;;;6.66;100.00;100148.22;2078966;28;20177;-74
2024/01/07 00:27:08;;;;;;;12.33;8.43;;;;;;;6.69;100.00;100139.13;2078721;28;20185;-74
2024/01/07 00:28:08;;;;;;;14.40;8.87;;;;;;;6.72;100.00;100126.50;2078540;28;20187;-74
2024/01/07 00:29:09;;;;;;;16.00;8.80;;;;;;;6.67;100.00;100121.47;2078586;28;20638;-74
2024/01/07 00:30:10;;;;;;;16.03;9.10;;;;;;;6.65;100.00;100124.63;2078634;28;20667;-74
2024/01/07 00:31:12;;;;;;;15.55;9.65;;;;;;;5.82;100.00;99997.38;2077173;28;20291;-74
2024/01/07 00:32:13;;;;;;;13.45;8.45;;;;;;;6.70;100.00;100124.16;2078846;28;20227;-74
2024/01/07 00:33:13;;;;;;;13.70;8.60;;;;;;;6.71;100.00;100130.47;2078712;28;20182;-73
2024/01/07 00:34:14;;;;;;;14.07;8.33;;;;;;;6.73;100.00;100131.59;2078318;28;20185;-74
2024/01/07 00:35:14;;;;;;;14.07;8.03;;;;;;;6.74;100.00;100135.13;2078014;28;20208;-74
2024/01/07 00:36:15;;;;;;;14.50;9.10;;;;;;;6.48;100.00;100084.41;2078782;28;20209;-74
2024/01/07 00:37:15;;;;;;;16.07;8.83;;;;;;;6.77;100.00;100132.28;2078379;28;20192;-74
2024/01/07 00:38:16;;;;;;;13.33;8.37;;;;;;;6.76;100.00;100132.75;2078061;28;20201;-74
2024/01/07 00:39:16;;;;;;;18.90;8.30;;;;;;;6.76;100.00;100139.00;2077567;28;20184;-74
2024/01/07 00:40:17;;;;;;;16.17;8.50;;;;;;;6.38;100.00;100068.03;2078566;28;20184;-74
2024/01/07 00:41:17;;;;;;;15.73;8.97;;;;;;;6.76;100.00;100141.00;2077685;28;20291;-74
2024/01/07 00:42:18;;;;;;;17.27;8.77;;;;;;;6.83;100.00;100138.88;2078171;28;20283;-73
2024/01/07 00:43:18;;;;;;;12.00;7.63;;;;;;;6.92;100.00;100130.88;2077309;28;20641;-74
2024/01/07 00:44:19;;;;;;;14.57;8.07;;;;;;;6.79;100.00;100099.63;2077389;28;20213;-73
2024/01/07 00:45:19;;;;;;;13.37;8.27;;;;;;;6.97;100.00;100122.13;2077501;28;20196;-74
2024/01/07 00:46:20;;;;;;;14.27;8.27;;;;;;;6.95;100.00;100124.53;2078854;28;20198;-74
2024/01/07 00:47:20;;;;;;;13.93;8.50;;;;;;;6.97;100.00;100133.13;2078572;28;20264;-73
2024/01/07 00:48:21;;;;;;;15.03;8.67;;;;;;;7.05;100.00;100139.31;2077756;28;20225;-74
2024/01/07 00:49:21;;;;;;;13.93;9.37;;;;;;;6.95;100.00;100110.75;2078538;28;20192;-74
2024/01/07 00:50:22;;;;;;;14.63;9.03;;;;;;;6.78;100.00;100072.50;2078505;28;20196;-74
2024/01/07 00:51:22;;;;;;;14.47;8.93;;;;;;;7.04;100.00;100121.22;2078409;28;20201;-74
2024/01/07 00:52:23;;;;;;;16.37;9.43;;;;;;;6.99;100.00;100119.75;2078922;28;20558;-73
2024/01/07 00:53:23;;;;;;;14.03;8.87;;;;;;;7.02;100.00;100120.88;2078027;28;20271;-74
2024/01/07 00:54:24;;;;;;;13.67;8.70;;;;;;;5.83;100.00;99933.75;2078949;28;20192;-74
2024/01/07 00:55:25;;;;;;;14.80;8.90;;;;;;;6.99;100.00;100111.47;2078158;28;20620;-74
2024/01/07 00:56:26;;;;;;;17.83;9.23;;;;;;;7.00;100.00;100107.53;2078551;28;20681;-74
2024/01/07 00:57:27;;;;;;;15.80;9.23;;;;;;;7.02;100.00;100107.09;2077761;28;20303;-74
2024/01/07 00:58:27;;;;;;;13.13;8.63;;;;;;;7.04;100.00;100099.19;2078743;28;20196;-74
2024/01/07 00:59:29;;;;;;;15.63;9.57;;;;;;;6.66;100.00;100062.09;2078519;28;20250;-74
2024/01/07 01:00:30;;;;;;;13.52;7.85;;;;;;;6.39;100.00;100001.59;2078264;28;20188;-74
2024/01/07 01:01:31;;;;;;;14.23;8.60;;;;;;;7.03;100.00;100095.66;2077880;28;20781;-73
2024/01/07 01:02:31;;;;;;;11.65;7.15;;;;;;;7.04;100.00;100093.69;2078043;28;20198;-74
2024/01/07 01:03:32;;;;;;;14.17;8.07;;;;;;;7.08;100.00;100097.16;2078175;28;20201;-74
2024/01/07 01:04:32;;;;;;;15.17;7.87;;;;;;;7.07;100.00;100096.38;2077899;28;20185;-74
2024/01/07 01:05:33;;;;;;;13.70;8.17;;;;;;;6.88;100.00;100068.78;2078165;28;20186;-74
2024/01/07 01:06:33;;;;;;;12.37;7.13;;;;;;;7.05;100.00;100095.22;2079327;28;20619;-74
2024/01/07 01:07:34;;;;;;;10.97;7.30;;;;;;;7.12;100.00;100108.91;2078431;28;20193;-74
2024/01/07 01:08:34;;;;;;;11.47;7.10;;;;;;;7.20;100.00;100097.31;2078967;28;20196;-74
2024/01/07 01:09:35;;;;;;;11.57;6.33;;;;;;;7.21;100.00;100098.06;2077526;28;20340;-74
2024/01/07 01:10:35;;;;;;;13.50;7.60;;;;;;;7.18;100.00;100099.69;2077447;28;20193;-74
2024/01/07 01:11:36;;;;;;;13.37;7.40;;;;;;;6.81;100.00;100022.88;2077935;28;20199;-74
2024/01/07 01:12:36;;;;;;;10.23;6.87;;;;;;;6.17;100.00;99934.38;2078860;28;20231;-74
2024/01/07 01:13:37;;;;;;;12.67;7.27;;;;;;;7.23;100.00;100077.16;2077881;28;20262;-74
2024/01/07 01:14:37;;;;;;;12.00;7.60;;;;;;;6.15;100.00;99912.00;2080193;28;20268;-74
2024/01/07 01:15:38;;;;;;;11.33;7.03;;;;;;;7.29;100.00;100077.47;2079812;28;20197;-74
2024/01/07 01:16:38;;;;;;;13.37;7.77;;;;;;;7.24;100.00;100066.94;2080079;28;20696;-74
2024/01/07 01:17:39;;;;;;;13.27;7.40;;;;;;;7.15;100.00;100066.72;2079264;28;20212;-74
2024/01/07 01:18:39;;;;;;;13.67;7.40;;;;;;;7.12;100.00;100059.31;2080361;28;20672;-74
2024/01/07 01:19:40;;;;;;;10.17;6.63;;;;;;;7.07;100.00;100063.31;2079861;28;20705;-74
2024/01/07 01:20:40;;;;;;;10.40;7.33;;;;;;;7.10;100.00;100062.47;2079582;28;20201;-74
2024/01/07 01:21:41;;;;;;;13.27;7.53;;;;;;;7.08;100.00;100064.09;2079737;28;20184;-74
2024/01/07 01:22:41;;;;;;;11.37;7.40;;;;;;;7.08;100.00;100061.34;2079256;28;20500;-74
2024/01/07 01:23:43;;;;;;;12.07;7.83;;;;;;;7.07;100.00;100046.78;2079173;28;20188;-74
2024/01/07 01:24:45;;;;;;;13.57;7.93;;;;;;;7.03;100.00;100051.56;2080610;28;20192;-74
2024/01/07 01:25:46;;;;;;;16.60;7.27;;;;;;;6.30;100.00;99938.06;2079201;28;20884;-74
2024/01/07 01:26:46;;;;;;;15.93;7.20;;;;;;;6.54;100.00;99967.13;2080180;28;20520;-74
2024/01/07 01:27:47;;;;;;;11.00;6.67;;;;;;;7.05;100.00;100042.88;2079861;28;20558;-74
2024/01/07 01:28:47;;;;;;;10.13;6.63;;;;;;;7.08;100.00;100053.06;2079961;28;20193;-74
2024/01/07 01:29:48;;;;;;;11.40;7.37;;;;;;;6.31;100.00;99923.09;2080095;28;20192;-73
2024/01/07 01:30:48;;;;;;;10.70;6.80;;;;;;;6.81;100.00;99992.56;2079522;28;20191;-74
2024/01/07 01:31:49;;;;;;;12.43;7.13;;;;;;;7.26;100.00;100053.50;2080584;28;20177;-74
2024/01/07 01:32:49;;;;;;;11.07;6.50;;;;;;;7.28;100.00;100057.38;2080154;28;21144;-73
2024/01/07 01:33:50;;;;;;;11.83;7.10;;;;;;;7.26;100.00;100054.28;2079476;28;20726;-74
2024/01/07 01:34:50;;;;;;;10.00;6.63;;;;;;;7.29;100.00;100066.44;2080284;28;20195;-74
2024/01/07 01:35:51;;;;;;;10.50;6.57;;;;;;;7.13;100.00;100036.81;2080078;28;20187;-74
2024/01/07 01:36:51;;;;;;;14.57;6.13;;;;;;;7.31;100.00;100066.78;2079470;28;20235;-73
2024/01/07 01:37:54;;;;;;;13.13;7.33;;;;;;;7.09;100.00;100033.38;2079830;28;20217;-73
2024/01/07 01:38:54;;;;;;;9.30;6.30;;;;;;;7.33;100.00;100058.88;2079756;28;20173;-73
2024/01/07 01:39:55;;;;;;;14.40;6.20;;;;;;;7.30;100.00;100059.72;2080051;28;20480;-73
2024/01/07 01:40:55;;;;;;;11.93;6.53;;;;;;;6.73;100.00;99979.38;2079749;28;20212;-74
2024/01/07 01:41:58;;;;;;;11.87;5.60;;;;;;;7.30;100.00;100049.50;2079833;28;20203;-73
2024/01/07 01:42:58;;;;;;;9.53;5.93;;;;;;;7.22;100.00;100037.03;2079793;28;20195;-73
2024/01/07 01:44:00;;;;;;;10.33;5.93;;;;;;;7.23;100.00;100044.09;2079877;28;20443;-74
2024/01/07 01:45:02;;;;;;;9.73;6.43;;;;;;;7.25;100.00;100049.97;2079967;28;20181;-74
2024/01/07 01:46:02;;;;;;;10.83;5.50;;;;;;;7.07;100.00;100032.25;2080144;28;20564;-74
2024/01/07 01:47:05;;;;;;;10.70;6.67;;;;;;;6.88;100.00;99977.91;2079622;28;20438;-74
2024/01/07 01:48:06;;;;;;;12.00;6.23;;;;;;;7.22;100.00;100031.53;2079568;28;20175;-73
2024/01/07 01:49:07;;;;;;;10.40;5.30;;;;;;;7.12;100.00;100043.53;2079626;28;20514;-74
2024/01/07 01:50:09;;;;;;;11.10;6.10;;;;;;;7.16;100.00;100024.97;2080644;28;20203;-73
2024/01/07 01:51:10;;;;;;;8.77;5.47;;;;;;;7.15;100.00;100019.88;2079374;28;20446;-74
2024/01/07 01:52:12;;;;;;;8.57;5.70;;;;;;;7.18;100.00;100013.53;2080390;28;20542;-74
2024/01/07 01:53:13;;;;;;;10.37;5.87;;;;;;;7.16;100.00;100013.94;2078764;28;20248;-74
2024/01/07 01:54:14;;;;;;;10.53;6.37;;;;;;;7.02;100.00;99997.69;2079479;28;21006;-74
2024/01/07 01:55:14;;;;;;;10.27;5.60;;;;;;;6.61;100.00;99924.94;2079424;28;21737;-73
2024/01/07 01:56:17;;;;;;;8.23;5.00;;;;;;;7.09;100.00;99988.50;2080044;28;20352;-74
2024/01/07 01:57:22;;;;;;;10.60;6.37;;;;;;;7.06;100.00;99987.38;2079623;28;20520;-74
2024/01/07 01:58:24;;;;;;;10.77;5.57;;;;;;;7.04;100.00;99995.28;2079925;28;20586;-74
2024/01/07 01:59:25;;;;;;;8.90;5.47;;;;;;;7.08;100.00;99995.22;2080353;28;20428;-74
2024/01/07 02:00:27;;;;;;;11.57;6.23;;;;;;;7.07;100.00;99988.91;2080037;28;20423;-74
2024/01/07 02:01:28;;;;;;;10.23;5.70;;;;;;;7.07;100.00;99988.91;2079654;28;20897;-74
2024/01/07 02:02:31;;;;;;;10.63;5.87;;;;;;;6.42;100.00;99884.38;2079777;28;20967;-74
2024/01/07 02:03:31;;;;;;;8.63;5.80;;;;;;;7.09;100.00;99978.28;2079472;28;20458;-74
2024/01/07 02:04:32;;;;;;;9.77;6.30;;;;;;;6.79;100.00;99928.91;2080298;28;20537;-74
2024/01/07 02:05:32;;;;;;;10.93;6.30;;;;;;;6.98;100.00;99957.63;2079709;28;20222;-74
2024/01/07 02:06:33;;;;;;;10.43;6.27;;;;;;;6.90;100.00;99945.19;2080134;28;20563;-74
2024/01/07 02:07:34;;;;;;;11.57;5.57;;;;;;;6.98;100.00;99963.16;2078883;28;20206;-74
2024/01/07 02:08:35;;;;;;;9.77;5.97;;;;;;;6.94;100.00;99956.91;2080691;28;20240;-74
2024/01/07 02:09:35;;;;;;;8.80;5.07;;;;;;;6.74;100.00;99934.09;2079554;28;20196;-73
2024/01/07 02:10:36;;;;;;;11.57;5.57;;;;;;;6.88;100.00;99951.13;2078801;28;20206;-74
2024/01/07 02:11:36;;;;;;;9.50;5.87;;;;;;;6.88;100.00;99950.34;2079602;28;20268;-73
2024/01/07 02:12:37;;;;;;;9.90;6.47;;;;;;;6.90;100.00;99948.72;2079789;28;20190;-73
2024/01/07 02:13:37;;;;;;;7.93;5.73;;;;;;;6.97;100.00;99950.59;2079315;28;20199;-74
2024/01/07 02:14:39;;;;;;;11.67;6.17;;;;;;;6.91;100.00;99931.00;2079927;28;20202;-73
2024/01/07 02:15:39;;;;;;;12.37;5.97;;;;;;;6.98;100.00;99941.09;2078958;28;20192;-74
2024/01/07 02:16:40;;;;;;;9.40;6.23;;;;;;;6.94;100.00;99952.19;2079539;28;20423;-74
2024/01/07 02:17:40;;;;;;;10.30;5.37;;;;;;;5.98;100.00;99802.28;2079948;28;20627;-74
2024/01/07 02:18:43;;;;;;;11.60;6.47;;;;;;;6.91;100.00;99944.78;2080074;28;20185;-74
2024/01/07 02:19:44;;;;;;;8.73;5.85;;;;;;;6.86;100.00;99937.00;2079226;28;20658;-74
2024/01/07 02:20:44;;;;;;;11.13;5.87;;;;;;;6.85;100.00;99937.41;2078352;28;20333;-74
2024/01/07 02:21:45;;;;;;;10.57;5.53;;;;;;;6.82;100.00;99943.78;2078954;28;20183;-73
2024/01/07 02:22:45;;;;;;;9.53;5.73;;;;;;;6.77;100.00;99944.28;2080060;28;20333;-74
2024/01/07 02:23:46;;;;;;;9.20;6.23;;;;;;;6.77;100.00;99933.28;2079020;28;20190;-74
2024/01/07 02:24:46;;;;;;;10.13;5.40;;;;;;;6.75;100.00;99930.16;2079716;28;20182;-74
2024/01/07 02:25:47;;;;;;;8.17;5.07;;;;;;;6.75;100.00;99943.91;2079767;28;20183;-73
2024/01/07 02:26:47;;;;;;;6.93;4.93;;;;;;;6.66;100.00;99932.69;2079711;28;20191;-74
2024/01/07 02:27:48;;;;;;;8.70;5.83;;;;;;;6.71;100.00;99940.47;2079323;28;20244;-74
2024/01/07 02:28:48;;;;;;;11.77;6.10;;;;;;;6.70;100.00;99953.44;2079855;28;20249;-74
2024/01/07 02:29:49;;;;;;;8.33;5.43;;;;;;;6.68;100.00;99949.56;2079611;28;20201;-74
2024/01/07 02:30:49;;;;;;;8.53;4.97;;;;;;;6.65;100.00;99950.41;2079180;28;20196;-74
2024/01/07 02:31:50;;;;;;;8.80;5.50;;;;;;;6.63;100.00;99948.09;2079254;28;20272;-74
2024/01/07 02:32:50;;;;;;;9.70;5.77;;;;;;;6.57;100.00;99937.97;2079655;28;20181;-74
2024/01/07 02:33:51;;;;;;;8.23;5.10;;;;;;;6.53;100.00;99938.06;2079764;28;20183;-74
2024/01/07 02:34:51;;;;;;;8.97;5.60;;;;;;;6.57;100.00;99933.22;2079875;28;20230;-74
2024/01/07 02:35:52;;;;;;;10.97;6.20;;;;;;;6.58;100.00;99934.81;2079676;28;20188;-74
2024/01/07 02:36:52;;;;;;;10.13;5.70;;;;;;;6.55;100.00;99938.41;2079526;28;20192;-74
2024/01/07 02:37:53;;;;;;;9.43;5.30;;;;;;;6.55;100.00;99938.41;2079363;28;20664;-74
2024/01/07 02:38:53;;;;;;;11.53;6.07;;;;;;;6.52;100.00;99936.47;2079642;28;20734;-73
2024/01/07 02:39:54;;;;;;;9.13;5.63;;;;;;;6.45;100.00;99925.59;2079473;28;20214;-74
2024/01/07 02:40:54;;;;;;;9.17;5.57;;;;;;;6.08;100.00;99864.56;2078835;28;20203;-74
2024/01/07 02:41:55;;;;;;;9.73;6.23;;;;;;;6.38;100.00;99923.00;2079423;28;20186;-74
2024/01/07 02:42:56;;;;;;;10.00;5.80;;;;;;;6.29;100.00;99910.94;2080223;28;20287;-74
2024/01/07 02:43:57;;;;;;;9.40;5.90;;;;;;;6.32;100.00;99910.13;2079196;28;20189;-74
2024/01/07 02:44:57;;;;;;;9.70;5.93;;;;;;;6.13;100.00;99897.88;2078684;28;20192;-74
2024/01/07 02:45:58;;;;;;;12.43;5.60;;;;;;;6.28;100.00;99909.41;2070674;28;20199;-74
2024/01/07 02:46:58;;;;;;;10.60;6.10;;;;;;;6.27;100.00;99903.16;2079072;28;20220;-74
2024/01/07 02:47:59;;;;;;;9.63;5.60;;;;;;;6.14;100.00;99877.44;2079206;28;20195;-74
2024/01/07 02:48:59;;;;;;;8.07;5.13;;;;;;;6.17;100.00;99890.34;2078793;28;20210;-74
2024/01/07 02:50:00;;;;;;;11.23;7.17;;;;;;;6.24;100.00;99908.69;2079426;28;20198;-74
2024/01/07 02:51:00;;;;;;;9.20;5.07;;;;;;;6.13;100.00;99895.13;2079292;28;20241;-74
2024/01/07 02:52:01;;;;;;;11.93;7.10;;;;;;;5.44;100.00;99787.88;2079545;28;20269;-74
2024/01/07 02:53:02;;;;;;;7.97;5.07;;;;;;;5.79;100.00;99842.25;2078702;28;20216;-74
2024/01/07 02:54:02;;;;;;;8.27;5.20;;;;;;;5.66;100.00;99818.53;2079105;28;20208;-74
2024/01/07 02:55:03;;;;;;;9.40;5.20;;;;;;;6.11;100.00;99892.00;2079701;28;20217;-73
2024/01/07 02:56:04;;;;;;;8.57;5.03;;;;;;;6.10;100.00;99890.47;2078804;28;20657;-74
2024/01/07 02:57:04;;;;;;;10.43;7.43;;;;;;;5.82;100.00;99849.72;2078502;28;20200;-74
2024/01/07 02:58:05;;;;;;;13.73;7.83;;;;;;;6.11;100.00;99888.50;2079370;28;20217;-74
2024/01/07 02:59:06;;;;;;;7.70;4.77;;;;;;;6.10;100.00;99890.47;2080127;28;20198;-74
2024/01/07 03:00:07;;;;;;;10.27;6.93;;;;;;;6.10;100.00;99892.44;2079452;28;20188;-74
2024/01/07 03:01:09;;;;;;;12.50;7.73;;;;;;;5.11;100.00;99741.34;2078671;28;20243;-74
2024/01/07 03:02:10;;;;;;;8.33;5.13;;;;;;;6.09;100.00;99894.41;2086966;28;20452;-74
2024/01/07 03:03:10;;;;;;;9.87;5.60;;;;;;;6.08;100.00;99898.38;2085527;28;21041;-74
2024/01/07 03:04:13;;;;;;;9.13;5.13;;;;;;;6.07;100.00;99891.31;2079649;28;20268;-74
2024/01/07 03:05:13;;;;;;;8.38;5.63;;;;;;;6.06;100.00;99894.47;2079170;28;20728;-74
2024/01/07 03:06:14;;;;;;;12.17;6.90;;;;;;;6.07;100.00;99893.28;2079456;28;20613;-74
2024/01/07 03:07:14;;;;;;;8.23;5.20;;;;;;;6.05;100.00;99885.44;2079135;28;20194;-74
2024/01/07 03:08:15;;;;;;;8.60;5.07;;;;;;;6.05;100.00;99895.69;2080141;28;20204;-73
2024/01/07 03:09:15;;;;;;;7.07;4.53;;;;;;;6.04;100.00;99894.09;2079438;28;20223;-74
2024/01/07 03:10:16;;;;;;;8.43;4.80;;;;;;;6.05;100.00;99888.19;2079771;28;20195;-74
2024/01/07 03:11:16;;;;;;;10.20;5.67;;;;;;;5.88;100.00;99861.78;2078236;28;20193;-74
2024/01/07 03:12:17;;;;;;;10.77;6.10;;;;;;;5.93;100.00;99875.06;2079599;28;20194;-74
2024/01/07 03:13:18;;;;;;;8.77;5.50;;;;;;;6.10;100.00;99887.72;2077817;28;20565;-73
2024/01/07 03:14:20;;;;;;;10.87;6.77;;;;;;;6.08;100.00;99890.13;2079434;28;20546;-73
2024/01/07 03:15:20;;;;;;;10.20;5.88;;;;;;;6.08;100.00;99887.38;2079227;28;20900;-74
2024/01/07 03:16:22;;;;;;;8.73;5.27;;;;;;;5.97;100.00;99869.50;2078986;28;20815;-74
2024/01/07 03:17:23;;;;;;;13.18;6.97;;;;;;;6.09;100.00;99891.66;2079371;28;20188;-74
2024/01/07 03:18:24;;;;;;;11.20;6.47;;;;;;;5.87;100.00;99862.19;2078864;28;20193;-74
2024/01/07 03:19:24;;;;;;;6.30;4.40;;;;;;;6.12;100.00;99879.84;2079211;28;20199;-74
2024/01/07 03:20:25;;;;;;;8.23;4.83;;;;;;;5.46;100.00;99788.25;2078870;28;20294;-74
2024/01/07 03:21:25;;;;;;;9.10;4.83;;;;;;;5.90;100.00;99851.13;2078343;28;20241;-74
2024/01/07 03:22:26;;;;;;;7.17;5.27;;;;;;;5.75;100.00;99827.78;2079498;28;20278;-73
2024/01/07 03:23:26;;;;;;;9.30;5.47;;;;;;;6.17;100.00;99887.59;2078351;28;20204;-74
2024/01/07 03:24:27;;;;;;;8.60;5.70;;;;;;;6.21;100.00;99888.28;2079309;28;20196;-74
2024/01/07 03:25:28;;;;;;;9.10;5.17;;;;;;;5.46;100.00;99773.72;2079013;28;20193;-74
2024/01/07 03:26:32;;;;;;;9.50;5.77;;;;;;;6.20;100.00;99877.72;2078641;28;20190;-74
2024/01/07 03:27:33;;;;;;;8.20;5.40;;;;;;;6.18;100.00;99869.91;2078966;28;20683;-73
2024/01/07 03:28:33;;;;;;;7.63;5.13;;;;;;;5.38;100.00;99740.09;2079320;28;20788;-74
2024/01/07 03:29:36;;;;;;;10.70;5.13;;;;;;;6.15;100.00;99862.47;2079173;28;20187;-74
2024/01/07 03:30:37;;;;;;;8.23;5.18;;;;;;;5.74;100.00;99792.50;2077844;28;20207;-74
2024/01/07 03:31:37;;;;;;;8.85;5.38;;;;;;;6.17;100.00;99856.56;2079183;28;20232;-74
2024/01/07 03:32:38;;;;;;;11.63;5.90;;;;;;;6.19;100.00;99846.69;2078546;28;20190;-74
2024/01/07 03:33:39;;;;;;;9.40;5.27;;;;;;;6.21;100.00;99857.28;2077716;28;20190;-74
2024/01/07 03:34:40;;;;;;;9.70;5.80;;;;;;;6.21;100.00;99838.78;2079364;28;20188;-74
2024/01/07 03:35:41;;;;;;;7.20;4.33;;;;;;;6.24;100.00;99843.44;2078139;28;20658;-74
2024/01/07 03:36:41;;;;;;;9.07;4.87;;;;;;;6.22;100.00;99845.84;2078269;28;20242;-74
2024/01/07 03:37:41;;;;;;;8.67;5.17;;;;;;;6.22;100.00;99834.84;2077753;28;20215;-74
2024/01/07 03:38:42;;;;;;;9.53;5.23;;;;;;;6.25;100.00;99835.97;2079346;28;20199;-73
2024/01/07 03:39:44;;;;;;;8.77;5.40;;;;;;;6.23;100.00;99833.66;2078911;28;20206;-74
2024/01/07 03:40:45;;;;;;;11.45;5.15;;;;;;;6.27;100.00;99833.56;2078702;28;20551;-74
2024/01/07 03:41:46;;;;;;;9.07;5.32;;;;;;;6.13;100.00;99806.31;2078763;28;20581;-74
2024/01/07 03:42:46;;;;;;;8.13;5.07;;;;;;;6.31;100.00;99824.03;2079239;28;20186;-74
2024/01/07 03:43:48;;;;;;;7.90;4.93;;;;;;;6.35;100.00;99821.25;2079277;28;20554;-74
2024/01/07 03:44:48;;;;;;;7.75;5.05;;;;;;;6.36;100.00;99814.53;2078559;28;20207;-74
2024/01/07 03:45:49;;;;;;;8.77;5.57;;;;;;;5.94;100.00;99741.09;2078192;28;20201;-74
2024/01/07 03:46:50;;;;;;;7.55;4.72;;;;;;;6.35;100.00;99802.75;2079310;28;20243;-74
2024/01/07 03:47:51;;;;;;;10.40;4.68;;;;;;;5.66;100.00;99708.59;2078625;28;20547;-74
2024/01/07 03:48:52;;;;;;;9.63;6.40;;;;;;;6.40;100.00;99807.75;2078981;28;20323;-74
2024/01/07 03:49:52;;;;;;;7.53;5.57;;;;;;;5.69;100.00;99711.28;2078992;28;20280;-74
2024/01/07 03:50:53;;;;;;;8.00;4.73;;;;;;;6.51;100.00;99818.56;2078259;28;20218;-74
2024/01/07 03:51:53;;;;;;;7.23;4.63;;;;;;;6.56;100.00;99816.06;2079005;28;20194;-74
2024/01/07 03:52:54;;;;;;;7.47;4.60;;;;;;;6.63;100.00;99824.22;2078519;28;20192;-73
2024/01/07 03:53:54;;;;;;;7.60;4.70;;;;;;;6.32;100.00;99761.56;2077692;28;20245;-74
2024/01/07 03:54:55;;;;;;;8.10;5.10;;;;;;;6.67;100.00;99818.63;2079280;28;20200;-74
2024/01/07 03:55:55;;;;;;;8.10;5.10;;;;;;;6.66;100.00;99842.59;2073969;28;20247;-74
2024/01/07 03:56:56;;;;;;;7.67;5.23;;;;;;;6.55;100.00;99803.50;2078303;28;20281;-74
2024/01/07 03:57:56;;;;;;;11.67;4.40;;;;;;;6.33;100.00;99765.84;2079094;28;20185;-74
2024/01/07 03:58:57;;;;;;;9.40;4.90;;;;;;;6.33;100.00;99765.84;2078643;28;20224;-73
2024/01/07 03:59:57;;;;;;;8.37;4.83;;;;;;;6.72;100.00;99816.13;2078901;28;20194;-74
2024/01/07 04:00:58;;;;;;;9.70;5.67;;;;;;;5.66;100.00;99659.91;2078796;28;20209;-74
2024/01/07 04:01:58;;;;;;;8.50;5.50;;;;;;;6.74;100.00;99821.22;2079150;28;20204;-74
2024/01/07 04:02:59;;;;;;;11.60;6.00;;;;;;;6.33;100.00;99761.13;2078874;28;20625;-74
2024/01/07 04:04:00;;;;;;;13.80;6.70;;;;;;;6.75;100.00;99818.03;2078049;28;20185;-74
2024/01/07 04:05:00;;;;;;;11.23;7.53;;;;;;;6.38;100.00;99759.84;2078186;28;20198;-74
2024/01/07 04:06:00;;;;;;;12.53;7.77;;;;;;;6.73;100.00;99819.66;2078203;28;20214;-74
2024/01/07 04:07:01;;;;;;;10.57;6.53;;;;;;;6.43;100.00;99767.59;2078147;28;20221;-74
2024/01/07 04:08:02;;;;;;;9.70;6.33;;;;;;;6.83;100.00;99816.66;2078451;28;20183;-74
2024/01/07 04:09:03;;;;;;;12.83;7.03;;;;;;;6.76;100.00;99802.31;2079539;28;20551;-74
2024/01/07 04:10:04;;;;;;;12.47;5.90;;;;;;;6.89;100.00;99823.25;2078723;28;20439;-74
2024/01/07 04:11:05;;;;;;;7.20;5.00;;;;;;;6.95;100.00;99829.00;2078233;28;20438;-74
2024/01/07 04:12:06;;;;;;;12.73;6.43;;;;;;;7.00;100.00;99826.53;2078058;28;20194;-74
2024/01/07 04:13:06;;;;;;;10.17;5.73;;;;;;;7.00;100.00;99823.78;2077383;28;20207;-74
2024/01/07 04:14:07;;;;;;;9.63;5.47;;;;;;;6.51;100.00;99747.75;2078884;28;20276;-74
2024/01/07 04:15:08;;;;;;;12.53;6.90;;;;;;;7.02;100.00;99815.88;2078692;28;20190;-74
2024/01/07 04:16:21;;;;;;;11.63;6.13;;;;;;;6.28;100.00;99703.84;2078657;28;20274;-74
2024/01/07 04:17:23;;;;;;;14.43;7.57;;;;;;;6.92;100.00;99788.56;2078490;28;20436;-74
2024/01/07 04:18:23;;;;;;;14.47;8.23;;;;;;;6.95;100.00;99806.97;2078675;28;20948;-74
2024/01/07 04:19:23;;;;;;;14.80;8.63;;;;;;;6.72;100.00;99771.31;2079278;28;20487;-74
2024/01/07 04:20:24;;;;;;;14.27;8.70;;;;;;;6.85;100.00;99811.53;2077885;28;20218;-74
2024/01/07 04:21:24;;;;;;;12.90;8.13;;;;;;;6.92;100.00;99805.09;2078266;28;20707;-74
2024/01/07 04:22:25;;;;;;;10.77;6.97;;;;;;;6.96;100.00;99814.03;2079158;28;20289;-74
2024/01/07 04:23:25;;;;;;;10.67;6.67;;;;;;;6.79;100.00;99785.72;2077905;28;20203;-74
2024/01/07 04:24:26;;;;;;;10.90;6.53;;;;;;;6.92;100.00;99803.09;2078945;28;20207;-74
2024/01/07 04:25:26;;;;;;;8.97;5.93;;;;;;;7.04;100.00;99809.94;2077925;28;20191;-74
2024/01/07 04:26:27;;;;;;;11.07;6.17;;;;;;;7.03;100.00;99797.38;2077761;28;20728;-74
2024/01/07 04:27:27;;;;;;;12.53;6.70;;;;;;;7.10;100.00;99797.19;2079188;28;20602;-73
2024/01/07 04:28:28;;;;;;;13.37;7.47;;;;;;;7.09;100.00;99787.38;2078987;28;20587;-74
2024/01/07 04:29:28;;;;;;;16.03;8.87;;;;;;;7.07;100.00;99789.81;2078183;28;20683;-73
2024/01/07 04:30:29;;;;;;;17.60;9.87;;;;;;;6.96;100.00;99776.25;2078235;28;20285;-74
2024/01/07 04:31:29;;;;;;;17.43;9.60;;;;;;;6.98;100.00;99782.09;2078543;28;20194;-74
2024/01/07 04:32:30;;;;;;;15.67;9.17;;;;;;;6.97;100.00;99808.09;2078912;28;20203;-74
2024/01/07 04:33:30;;;;;;;11.23;7.10;;;;;;;6.88;100.00;99780.38;2078080;28;20200;-73
2024/01/07 04:34:31;;;;;;;13.93;7.93;;;;;;;6.74;100.00;99766.16;2086439;28;20189;-74
2024/01/07 04:35:31;;;;;;;12.83;8.30;;;;;;;6.82;100.00;99784.06;2086830;28;20270;-74
2024/01/07 04:36:32;;;;;;;12.13;8.33;;;;;;;5.98;100.00;99653.78;2079429;28;20623;-74
2024/01/07 04:37:33;;;;;;;11.33;7.47;;;;;;;6.80;100.00;99773.47;2078521;28;20685;-74
2024/01/07 04:38:34;;;;;;;13.50;7.67;;;;;;;6.80;100.00;99769.94;2079020;28;20199;-74
2024/01/07 04:39:35;;;;;;;17.20;8.88;;;;;;;6.83;100.00;99789.13;2078613;28;20247;-74
2024/01/07 04:40:35;;;;;;;17.43;9.70;;;;;;;6.84;100.00;99778.91;2077586;28;20235;-74
2024/01/07 04:41:36;;;;;;;12.57;8.00;;;;;;;6.74;100.00;99772.44;2078229;28;26132;-74
2024/01/07 04:42:36;;;;;;;13.80;7.90;;;;;;;6.77;100.00;99782.59;2078326;28;20282;-74